Time;durP1;ratioP1;P1;durP2;ratioP2;P2;SDS_P1;SDS_P2;PMS_P1;PMS_P2;Temp;Humidity;BMP_temperature;BMP_pressure;BME280_temperature;BME280_humidity;BME280_pressure;Samples;Min_cycle;Max_cycle;Signal;HPM_P1;HPM_P2
2023/05/26 00:01:04;;;;;;;;;;;;;;;9.48;76.92;102860.50;5069674;28;1287;-79
2023/05/26 00:03:29;;;;;;;;;;;;;;;9.50;75.65;102866.44;5055245;28;1310;-78
2023/05/26 00:05:55;;;;;;;;;;;;;;;9.49;76.45;102864.75;5058977;28;1945;-78
2023/05/26 00:08:22;;;;;;;;;;;;;;;9.48;77.33;102863.06;5042495;28;1430;-78
2023/05/26 00:10:47;;;;;;;;;;;;;;;9.44;76.29;102866.69;5054821;28;1232;-79
2023/05/26 00:13:13;;;;;;;;;;;;;;;9.37;77.59;102854.94;5056417;28;1088;-79
2023/05/26 00:15:38;;;;;;;;;;;;;;;9.37;76.66;102865.28;5044115;28;1632;-79
2023/05/26 00:18:05;;;;;;;;;;;;;;;9.36;76.62;102863.63;5061103;28;1011;-77
2023/05/26 00:20:30;;;;;;;;;;;;;;;9.31;76.78;102860.38;5057018;28;1110;-78
2023/05/26 00:22:56;;;;;;;;;;;;;;;9.33;76.53;102866.34;5058947;28;1183;-78
2023/05/26 00:25:22;;;;;;;;;;;;;;;9.36;77.51;102863.63;5047024;28;1945;-78
2023/05/26 00:27:47;;;;;;;;;;;;;;;9.33;76.82;102868.91;5053054;28;1262;-78
2023/05/26 00:30:12;;;;;;;;;;;;;;;9.32;76.61;102868.09;5054843;28;1050;-78
2023/05/26 00:32:38;;;;;;;;;;;;;;;9.33;77.01;102863.75;5056903;28;1498;-78
2023/05/26 00:35:03;;;;;;;;;;;;;;;9.34;76.73;102875.78;5037283;28;1204;-78
2023/05/26 00:37:28;;;;;;;;;;;;;;;9.34;76.52;102875.78;5068581;28;1179;-77
2023/05/26 00:39:53;;;;;;;;;;;;;;;9.31;77.83;102875.94;5042695;28;1354;-78
2023/05/26 00:42:19;;;;;;;;;;;;;;;9.26;77.55;102872.69;5055220;28;1265;-78
2023/05/26 00:44:44;;;;;;;;;;;;;;;9.28;76.66;102876.03;5063859;28;1046;-78
2023/05/26 00:47:09;;;;;;;;;;;;;;;9.25;76.73;102874.44;5040875;28;1938;-77
2023/05/26 00:49:35;;;;;;;;;;;;;;;9.25;76.91;102876.19;5061192;28;1094;-78
2023/05/26 00:52:00;;;;;;;;;;;;;;;9.23;76.71;102878.00;5058790;28;1224;-78
2023/05/26 00:54:25;;;;;;;;;;;;;;;9.25;77.01;102871.00;5058172;28;1098;-78
2023/05/26 00:56:51;;;;;;;;;;;;;;;9.22;76.74;102876.31;5055217;28;1112;-78
2023/05/26 00:59:17;;;;;;;;;;;;;;;9.16;77.10;102877.41;5062992;28;1138;-78
2023/05/26 01:01:43;;;;;;;;;;;;;;;9.17;76.67;102878.25;5068348;28;1221;-78
2023/05/26 01:04:08;;;;;;;;;;;;;;;9.18;77.04;102879.97;5053721;28;1056;-78
2023/05/26 01:06:34;;;;;;;;;;;;;;;9.14;77.17;102883.56;5046038;28;1902;-79
2023/05/26 01:08:59;;;;;;;;;;;;;;;9.12;77.12;102885.38;5065943;28;1021;-78
2023/05/26 01:11:27;;;;;;;;;;;;;;;9.12;77.02;102880.19;5031921;28;1233;-79
2023/05/26 01:14:13;;;;;;;;;;;;;;;9.07;76.98;102887.34;5047566;28;1224;-78
2023/05/26 01:16:42;;;;;;;;;;;;;;;9.09;77.09;102888.09;5053870;28;1089;-79
2023/05/26 01:19:26;;;;;;;;;;;;;;;9.09;77.17;102885.53;5068188;28;1202;-79
2023/05/26 01:21:54;;;;;;;;;;;;;;;8.99;77.40;102885.06;5050159;28;1283;-78
2023/05/26 01:24:25;;;;;;;;;;;;;;;8.94;77.67;102887.81;5032741;28;1449;-78
2023/05/26 01:27:00;;;;;;;;;;;;;;;8.91;77.55;102889.72;5040428;28;1960;-79
2023/05/26 01:29:27;;;;;;;;;;;;;;;8.90;77.49;102881.13;5038898;28;1220;-78
2023/05/26 01:31:52;;;;;;;;;;;;;;;8.90;77.69;102888.03;5049125;28;1287;-78
2023/05/26 01:34:17;;;;;;;;;;;;;;;8.83;77.65;102890.06;5060903;28;1302;-78
2023/05/26 01:36:43;;;;;;;;;;;;;;;8.83;77.49;102887.47;5067842;28;1088;-79
2023/05/26 01:39:08;;;;;;;;;;;;;;;8.81;78.62;102896.16;5046549;28;1416;-78
2023/05/26 01:41:37;;;;;;;;;;;;;;;8.78;78.24;102881.63;5058018;28;1451;-78
2023/05/26 01:44:08;;;;;;;;;;;;;;;8.72;77.86;102881.88;5060167;28;1417;-78
2023/05/26 01:46:36;;;;;;;;;;;;;;;8.71;78.05;102885.34;5057766;28;1906;-78
2023/05/26 01:49:03;;;;;;;;;;;;;;;8.65;78.82;102880.44;5056945;28;1105;-78
2023/05/26 01:51:32;;;;;;;;;;;;;;;8.59;79.27;102880.69;5065270;28;1629;-78
2023/05/26 01:53:59;;;;;;;;;;;;;;;8.54;78.82;102877.44;5060796;28;1129;-78
2023/05/26 01:56:25;;;;;;;;;;;;;;;8.52;78.85;102891.28;5049955;28;1160;-78
2023/05/26 01:58:51;;;;;;;;;;;;;;;8.54;78.87;102885.19;5060428;28;1294;-79
2023/05/26 02:01:17;;;;;;;;;;;;;;;8.54;79.48;102892.94;5059091;28;1292;-78
2023/05/26 02:03:42;;;;;;;;;;;;;;;8.47;78.79;102897.53;5040262;28;1193;-79
2023/05/26 02:06:08;;;;;;;;;;;;;;;8.42;79.40;102895.13;5065890;28;1963;-79
2023/05/26 02:08:35;;;;;;;;;;;;;;;8.41;79.07;102898.59;5057871;28;942;-78
2023/05/26 02:11:01;;;;;;;;;;;;;;;8.37;79.60;102897.06;5053861;28;1348;-77
2023/05/26 02:13:26;;;;;;;;;;;;;;;8.36;79.66;102895.34;5037614;28;1338;-77
2023/05/26 02:15:51;;;;;;;;;;;;;;;8.35;79.01;102898.81;5056979;28;1109;-78
2023/05/26 02:18:16;;;;;;;;;;;;;;;8.33;79.36;102895.47;5043750;28;1187;-79
2023/05/26 02:20:41;;;;;;;;;;;;;;;8.33;79.44;102910.97;5063474;28;1342;-78
2023/05/26 02:23:07;;;;;;;;;;;;;;;8.36;79.41;102899.69;5045113;28;1165;-78
2023/05/26 02:25:32;;;;;;;;;;;;;;;8.35;79.34;102904.00;5058694;28;1906;-78
2023/05/26 02:27:57;;;;;;;;;;;;;;;8.33;79.32;102905.81;5059885;28;1074;-77
2023/05/26 02:30:22;;;;;;;;;;;;;;;8.34;79.78;102916.97;5059997;28;1237;-78
2023/05/26 02:32:48;;;;;;;;;;;;;;;8.33;79.88;102921.31;5047915;28;1307;-77
2023/05/26 02:35:13;;;;;;;;;;;;;;;8.27;80.21;102916.38;5051274;28;1146;-77
2023/05/26 02:37:38;;;;;;;;;;;;;;;8.24;79.65;102916.50;5057379;28;1088;-77
2023/05/26 02:40:06;;;;;;;;;;;;;;;8.24;80.77;102911.31;5060314;28;1303;-77
2023/05/26 02:42:32;;;;;;;;;;;;;;;8.18;81.63;102914.13;5058211;28;1154;-78
2023/05/26 02:44:57;;;;;;;;;;;;;;;8.16;80.84;102915.94;5047777;28;1272;-77
2023/05/26 02:47:22;;;;;;;;;;;;;;;8.12;80.47;102916.97;5060397;28;1959;-78
2023/05/26 02:49:47;;;;;;;;;;;;;;;8.11;80.42;102912.69;5071701;28;1135;-78
2023/05/26 02:52:13;;;;;;;;;;;;;;;8.07;80.68;102908.53;5061694;28;1096;-78
2023/05/26 02:54:38;;;;;;;;;;;;;;;8.05;81.80;102916.34;5064436;28;1089;-78
2023/05/26 02:57:03;;;;;;;;;;;;;;;7.98;81.38;102910.56;5051227;28;1267;-78
2023/05/26 02:59:28;;;;;;;;;;;;;;;7.93;82.08;102904.72;5051325;28;1440;-77
2023/05/26 03:01:53;;;;;;;;;;;;;;;7.92;81.56;102900.47;5064574;28;1214;-78
2023/05/26 03:04:19;;;;;;;;;;;;;;;7.89;82.85;102900.56;5046397;28;1307;-78
2023/05/26 03:06:44;;;;;;;;;;;;;;;7.86;82.18;102911.03;5043705;28;1902;-78
2023/05/26 03:09:09;;;;;;;;;;;;;;;7.84;81.95;102912.81;5054317;28;1181;-78
2023/05/26 03:11:35;;;;;;;;;;;;;;;7.84;82.85;102902.47;5060909;28;1581;-77
2023/05/26 03:14:00;;;;;;;;;;;;;;;7.82;81.86;102909.44;5047815;28;1177;-78
2023/05/26 03:16:25;;;;;;;;;;;;;;;7.83;81.22;102903.38;5059028;28;1072;-77
2023/05/26 03:18:51;;;;;;;;;;;;;;;7.80;81.25;102906.09;5065301;28;1041;-77
2023/05/26 03:21:17;;;;;;;;;;;;;;;7.76;82.70;102909.69;5068483;28;1212;-78
2023/05/26 03:23:42;;;;;;;;;;;;;;;7.73;82.77;102925.28;5059374;28;1063;-77
2023/05/26 03:26:07;;;;;;;;;;;;;;;7.74;82.36;102921.78;5039944;28;1886;-78
2023/05/26 03:28:32;;;;;;;;;;;;;;;7.72;82.55;102921.00;5046690;28;1268;-78
2023/05/26 03:30:58;;;;;;;;;;;;;;;7.71;82.12;102916.75;5062552;28;1233;-78
2023/05/26 03:33:23;;;;;;;;;;;;;;;7.70;82.49;102920.22;5061398;28;962;-78
2023/05/26 03:35:48;;;;;;;;;;;;;;;7.71;82.12;102921.91;5045578;28;1189;-79
2023/05/26 03:38:13;;;;;;;;;;;;;;;7.72;82.31;102923.59;5059740;28;1452;-77
2023/05/26 03:40:39;;;;;;;;;;;;;;;7.73;83.71;102925.28;5046696;28;1691;-78
2023/05/26 03:43:04;;;;;;;;;;;;;;;7.71;82.98;102921.91;5066792;28;1029;-78
2023/05/26 03:45:29;;;;;;;;;;;;;;;7.69;83.01;102923.72;5045723;28;1922;-78
2023/05/26 03:47:54;;;;;;;;;;;;;;;7.65;83.62;102916.97;5062804;28;1114;-78
2023/05/26 03:50:20;;;;;;;;;;;;;;;7.63;82.50;102918.78;5065901;28;1272;-77
2023/05/26 03:52:45;;;;;;;;;;;;;;;7.62;83.41;102928.22;5066914;28;1161;-78
2023/05/26 03:55:10;;;;;;;;;;;;;;;7.60;83.64;102935.19;5072740;28;1055;-77
2023/05/26 03:57:36;;;;;;;;;;;;;;;7.61;83.66;102930.88;5070025;28;1105;-77
2023/05/26 04:00:03;;;;;;;;;;;;;;;7.61;84.29;102930.88;5043719;28;1257;-79
2023/05/26 04:02:29;;;;;;;;;;;;;;;7.59;82.82;102932.69;5046187;28;1241;-78
2023/05/26 04:04:54;;;;;;;;;;;;;;;7.57;82.94;102935.31;5055044;28;1160;-77
2023/05/26 04:07:19;;;;;;;;;;;;;;;7.58;83.69;102931.00;5068259;28;1957;-78
2023/05/26 04:09:44;;;;;;;;;;;;;;;7.54;83.88;102940.59;5048235;28;1271;-79
2023/05/26 04:12:10;;;;;;;;;;;;;;;7.54;83.83;102935.41;5064593;28;1501;-78
2023/05/26 04:14:35;;;;;;;;;;;;;;;7.55;84.08;102937.09;5068443;28;1253;-78
2023/05/26 04:17:00;;;;;;;;;;;;;;;7.56;84.59;102935.34;5067283;28;1304;-78
2023/05/26 04:19:25;;;;;;;;;;;;;;;7.51;84.04;102939.84;5069041;28;1303;-77
2023/05/26 04:21:51;;;;;;;;;;;;;;;7.51;84.68;102945.00;5065078;28;1267;-78
2023/05/26 04:24:16;;;;;;;;;;;;;;;7.55;83.43;102951.75;5070575;28;1128;-78
2023/05/26 04:26:41;;;;;;;;;;;;;;;7.56;85.93;102948.28;5052395;28;1906;-79
2023/05/26 04:29:07;;;;;;;;;;;;;;;7.54;85.04;102950.06;5065875;28;1128;-78
2023/05/26 04:31:32;;;;;;;;;;;;;;;7.55;84.13;102952.59;5044685;28;1266;-78
2023/05/26 04:33:57;;;;;;;;;;;;;;;7.57;84.27;102955.13;5070360;28;1211;-78
2023/05/26 04:36:23;;;;;;;;;;;;;;;7.58;84.36;102956.81;5069410;28;1208;-78
2023/05/26 04:38:48;;;;;;;;;;;;;;;7.63;84.03;102954.94;5064210;28;1164;-76
2023/05/26 04:41:15;;;;;;;;;;;;;;;7.66;84.49;102954.81;5063235;28;1128;-77
2023/05/26 04:43:40;;;;;;;;;;;;;;;7.69;83.73;102952.13;5065220;28;1225;-78
2023/05/26 04:46:06;;;;;;;;;;;;;;;7.74;83.56;102960.53;5065934;28;1931;-78
2023/05/26 04:48:31;;;;;;;;;;;;;;;7.76;84.81;102961.34;5068481;28;1258;-77
2023/05/26 04:50:56;;;;;;;;;;;;;;;7.74;84.43;102960.53;5063440;28;1093;-79
2023/05/26 04:53:22;;;;;;;;;;;;;;;7.78;84.62;102959.53;5049453;28;1387;-78
2023/05/26 04:55:47;;;;;;;;;;;;;;;7.82;84.13;102961.13;5062187;28;1219;-77
2023/05/26 04:58:12;;;;;;;;;;;;;;;7.86;83.57;102962.69;5048577;28;1306;-79
2023/05/26 05:00:38;;;;;;;;;;;;;;;7.89;84.04;102966.91;5047291;28;1268;-78
2023/05/26 05:03:03;;;;;;;;;;;;;;;7.92;83.69;102967.66;5068490;28;1044;-78
2023/05/26 05:05:29;;;;;;;;;;;;;;;7.95;83.35;102962.34;5051050;28;1909;-80
2023/05/26 05:07:54;;;;;;;;;;;;;;;7.97;84.35;102964.88;5068782;28;1471;-79
2023/05/26 05:10:20;;;;;;;;;;;;;;;7.94;84.47;102965.84;5041177;28;1317;-79
2023/05/26 05:12:46;;;;;;;;;;;;;;;7.98;84.05;102962.25;5048851;28;1243;-78
2023/05/26 05:15:12;;;;;;;;;;;;;;;8.01;84.58;102970.78;5059665;28;1110;-78
2023/05/26 05:17:38;;;;;;;;;;;;;;;7.99;84.11;102974.28;5060488;28;1212;-78
2023/05/26 05:20:04;;;;;;;;;;;;;;;8.04;84.47;102975.84;5059340;28;1058;-78
2023/05/26 05:22:29;;;;;;;;;;;;;;;8.08;84.70;102977.41;5044038;28;1220;-78
2023/05/26 05:24:54;;;;;;;;;;;;;;;8.10;84.25;102985.97;5047412;28;1204;-78
2023/05/26 05:27:20;;;;;;;;;;;;;;;8.07;83.99;102980.91;5055957;28;1961;-77
2023/05/26 05:29:45;;;;;;;;;;;;;;;8.13;84.39;102996.19;5064598;28;1263;-79
2023/05/26 05:32:10;;;;;;;;;;;;;;;8.16;84.45;102996.06;5064423;28;1198;-78
2023/05/26 05:34:35;;;;;;;;;;;;;;;8.18;84.01;102995.09;5080002;28;1271;-80
2023/05/26 05:37:01;;;;;;;;;;;;;;;8.22;83.73;103001.88;5067928;28;1153;-79
2023/05/26 05:39:26;;;;;;;;;;;;;;;8.29;84.40;102997.31;5088086;28;1084;-77
2023/05/26 05:41:51;;;;;;;;;;;;;;;8.31;84.18;103000.66;5083832;28;1044;-77
2023/05/26 05:44:16;;;;;;;;;;;;;;;8.35;84.61;102996.22;5087959;28;1183;-78
2023/05/26 05:46:42;;;;;;;;;;;;;;;8.39;83.99;102998.69;5069328;28;1870;-78
2023/05/26 05:49:07;;;;;;;;;;;;;;;8.47;84.23;103001.81;5092062;28;998;-79
2023/05/26 05:51:32;;;;;;;;;;;;;;;8.51;84.59;103008.56;5074220;28;1326;-80
2023/05/26 05:53:57;;;;;;;;;;;;;;;8.55;84.87;103008.47;5091107;28;1077;-78
2023/05/26 05:56:22;;;;;;;;;;;;;;;8.56;85.03;103005.81;5076180;28;1176;-79
2023/05/26 05:58:48;;;;;;;;;;;;;;;8.62;84.93;103009.91;5075933;28;1407;-79
2023/05/26 06:01:13;;;;;;;;;;;;;;;8.65;84.53;103009.78;5090902;28;1007;-78
2023/05/26 06:03:38;;;;;;;;;;;;;;;8.73;84.22;103012.91;5072056;28;993;-79
2023/05/26 06:06:05;;;;;;;;;;;;;;;8.78;84.10;103017.00;5092808;28;1874;-79
2023/05/26 06:08:30;;;;;;;;;;;;;;;8.85;83.77;103015.03;5069027;28;1168;-78
2023/05/26 06:10:55;;;;;;;;;;;;;;;8.91;83.44;103011.34;5066290;28;1088;-78
2023/05/26 06:13:20;;;;;;;;;;;;;;;8.96;83.34;102999.91;5066856;28;1228;-78
2023/05/26 06:15:46;;;;;;;;;;;;;;;9.01;83.39;103003.16;5065453;28;1068;-78
2023/05/26 06:18:11;;;;;;;;;;;;;;;9.11;83.24;103002.78;5068927;28;1225;-78
2023/05/26 06:20:36;;;;;;;;;;;;;;;9.20;83.20;103011.03;5053521;28;1267;-78
2023/05/26 06:23:01;;;;;;;;;;;;;;;9.25;82.54;103010.84;5072086;28;1422;-78
2023/05/26 06:25:26;;;;;;;;;;;;;;;9.31;82.67;103015.75;5084657;28;1870;-76
2023/05/26 06:27:52;;;;;;;;;;;;;;;9.37;82.04;103002.56;5092829;28;1188;-78
2023/05/26 06:30:17;;;;;;;;;;;;;;;9.45;82.13;103012.59;5093280;28;1232;-80
2023/05/26 06:32:42;;;;;;;;;;;;;;;9.53;82.08;103016.56;5072921;28;1180;-78
2023/05/26 06:35:08;;;;;;;;;;;;;;;9.56;81.43;103000.88;5072932;28;992;-77
2023/05/26 06:37:33;;;;;;;;;;;;;;;9.64;80.83;103012.69;5051166;28;1267;-78
2023/05/26 06:39:58;;;;;;;;;;;;;;;9.70;81.02;103015.00;5047094;28;1323;-79
2023/05/26 06:42:23;;;;;;;;;;;;;;;9.69;79.96;103010.69;5068216;28;1056;-78
2023/05/26 06:44:48;;;;;;;;;;;;;;;9.71;79.22;103012.34;5054542;28;1397;-77
2023/05/26 06:47:14;;;;;;;;;;;;;;;9.78;79.39;103010.31;5062292;28;1910;-78
2023/05/26 06:49:39;;;;;;;;;;;;;;;9.82;78.94;103019.66;5049448;28;1350;-77
2023/05/26 06:52:04;;;;;;;;;;;;;;;9.86;78.83;103023.78;5062266;28;1125;-78
2023/05/26 06:54:29;;;;;;;;;;;;;;;9.92;78.53;103017.47;5057671;28;1056;-78
2023/05/26 06:56:55;;;;;;;;;;;;;;;9.99;78.58;103014.56;5069540;28;1217;-79
2023/05/26 06:59:20;;;;;;;;;;;;;;;10.09;78.88;103010.66;5048768;28;1550;-78
2023/05/26 07:01:45;;;;;;;;;;;;;;;10.18;77.89;103034.50;5058938;28;978;-78
2023/05/26 07:04:10;;;;;;;;;;;;;;;10.20;77.63;103032.66;5065358;28;1252;-77
2023/05/26 07:06:36;;;;;;;;;;;;;;;10.21;77.00;103029.19;5068802;28;1929;-77
2023/05/26 07:09:01;;;;;;;;;;;;;;;10.29;77.28;103035.72;5075323;28;1557;-78
2023/05/26 07:11:26;;;;;;;;;;;;;;;10.33;75.95;103028.66;5042066;28;1330;-78
2023/05/26 07:13:52;;;;;;;;;;;;;;;10.33;76.02;103034.69;5058829;28;1030;-77
2023/05/26 07:16:17;;;;;;;;;;;;;;;10.38;76.68;103034.50;5059136;28;1245;-77
2023/05/26 07:18:42;;;;;;;;;;;;;;;10.48;76.14;103038.31;5049533;28;1407;-77
2023/05/26 07:21:07;;;;;;;;;;;;;;;10.52;75.63;103032.09;5063039;28;1108;-77
2023/05/26 07:23:33;;;;;;;;;;;;;;;10.53;74.11;103025.97;5043407;28;1180;-78
2023/05/26 07:25:58;;;;;;;;;;;;;;;10.58;75.98;103028.38;5059512;28;1902;-77
2023/05/26 07:28:23;;;;;;;;;;;;;;;10.62;75.62;103035.94;5049038;28;1315;-77
2023/05/26 07:30:48;;;;;;;;;;;;;;;10.71;75.00;103033.81;5066671;28;1093;-78
2023/05/26 07:33:14;;;;;;;;;;;;;;;10.75;75.04;103035.38;5043755;28;1351;-77
2023/05/26 07:35:39;;;;;;;;;;;;;;;10.78;74.19;103030.03;5072074;28;1213;-77
2023/05/26 07:38:04;;;;;;;;;;;;;;;10.81;73.67;103040.28;5058617;28;1291;-77
2023/05/26 07:40:34;;;;;;;;;;;;;;;10.81;73.92;103035.09;5062921;28;1148;-78
2023/05/26 07:42:59;;;;;;;;;;;;;;;10.82;73.83;103031.56;5074542;28;1076;-77
2023/05/26 07:45:25;;;;;;;;;;;;;;;10.84;74.20;103029.75;5070562;28;1945;-78
2023/05/26 07:47:50;;;;;;;;;;;;;;;10.85;72.83;103026.25;5049361;28;1350;-77
2023/05/26 07:50:15;;;;;;;;;;;;;;;10.90;74.29;103024.28;5066821;28;1009;-77
2023/05/26 07:52:40;;;;;;;;;;;;;;;10.95;72.24;103030.06;5055973;28;1329;-78
2023/05/26 07:55:06;;;;;;;;;;;;;;;11.04;73.54;103027.03;5049345;28;1247;-78
2023/05/26 07:57:31;;;;;;;;;;;;;;;11.09;72.68;103024.22;5062229;28;1383;-77
2023/05/26 07:59:56;;;;;;;;;;;;;;;11.17;73.26;103022.06;5069659;28;1021;-78
2023/05/26 08:02:22;;;;;;;;;;;;;;;11.30;72.53;103023.16;5063930;28;1441;-77
2023/05/26 08:04:47;;;;;;;;;;;;;;;11.47;71.91;103019.72;5060637;28;1228;-78
2023/05/26 08:07:12;;;;;;;;;;;;;;;11.39;71.57;103019.25;5065299;28;1902;-77
2023/05/26 08:09:37;;;;;;;;;;;;;;;11.45;71.92;103021.53;5045929;28;1165;-78
2023/05/26 08:12:03;;;;;;;;;;;;;;;11.54;71.82;103026.28;5062631;28;1099;-77
2023/05/26 08:14:28;;;;;;;;;;;;;;;11.64;71.08;103027.53;5044495;28;1394;-77
2023/05/26 08:16:53;;;;;;;;;;;;;;;11.70;71.35;103021.16;5068238;28;1078;-77
2023/05/26 08:19:18;;;;;;;;;;;;;;;11.81;70.69;103025.78;5066769;28;1157;-77
2023/05/26 08:21:44;;;;;;;;;;;;;;;11.83;70.29;103021.41;5066719;28;1245;-78
2023/05/26 08:24:09;;;;;;;;;;;;;;;11.88;69.44;103027.22;5045454;28;1499;-78
2023/05/26 08:26:34;;;;;;;;;;;;;;;11.96;70.62;103022.44;5059751;28;1965;-77
2023/05/26 08:28:59;;;;;;;;;;;;;;;12.06;70.36;103018.44;5059523;28;1175;-78
2023/05/26 08:31:25;;;;;;;;;;;;;;;12.09;68.09;103023.47;5067667;28;1153;-78
2023/05/26 08:33:50;;;;;;;;;;;;;;;12.12;68.61;103023.31;5057062;28;1327;-78
2023/05/26 08:36:15;;;;;;;;;;;;;;;12.19;69.76;103019.47;5062427;28;1111;-78
2023/05/26 08:38:40;;;;;;;;;;;;;;;12.31;68.44;103027.53;5059080;28;1166;-78
2023/05/26 08:41:07;;;;;;;;;;;;;;;12.34;67.80;103028.22;5049878;28;1259;-78
2023/05/26 08:43:36;;;;;;;;;;;;;;;12.41;68.31;103028.72;5070657;28;1048;-78
2023/05/26 08:46:02;;;;;;;;;;;;;;;12.50;68.20;103025.59;5061336;28;1918;-78
2023/05/26 08:48:28;;;;;;;;;;;;;;;12.60;68.01;103018.13;5066124;28;1108;-78
2023/05/26 08:50:54;;;;;;;;;;;;;;;12.65;65.98;103011.75;5040897;28;1324;-78
2023/05/26 08:53:20;;;;;;;;;;;;;;;12.68;66.34;103014.19;5060582;28;1199;-78
2023/05/26 08:55:46;;;;;;;;;;;;;;;12.77;65.87;103026.69;5064256;28;1097;-78
2023/05/26 08:58:12;;;;;;;;;;;;;;;12.86;65.51;103027.94;5065447;28;1363;-79
2023/05/26 09:00:39;;;;;;;;;;;;;;;12.90;65.58;103020.78;5057775;28;1201;-79
2023/05/26 09:03:04;;;;;;;;;;;;;;;12.96;65.36;103017.84;5060528;28;1416;-78
2023/05/26 09:05:30;;;;;;;;;;;;;;;13.06;63.85;103021.59;5063231;28;1905;-79
2023/05/26 09:07:55;;;;;;;;;;;;;;;13.14;65.54;103013.38;5053239;28;1267;-79
2023/05/26 09:10:25;;;;;;;;;;;;;;;13.20;64.00;103019.06;5061116;28;1276;-80
2023/05/26 09:13:01;;;;;;;;;;;;;;;13.35;65.14;103016.50;5056956;28;1049;-78
2023/05/26 09:15:26;;;;;;;;;;;;;;;13.42;61.81;103017.81;5061868;28;1240;-79
2023/05/26 09:17:51;;;;;;;;;;;;;;;13.47;64.03;103021.00;5056208;28;1163;-79
2023/05/26 09:20:17;;;;;;;;;;;;;;;13.56;63.47;103023.06;5060296;28;1228;-79
2023/05/26 09:22:43;;;;;;;;;;;;;;;13.66;62.75;103020.78;5059401;28;1045;-78
2023/05/26 09:25:09;;;;;;;;;;;;;;;13.71;61.42;103014.34;5065059;28;1124;-78
2023/05/26 09:27:34;;;;;;;;;;;;;;;13.70;62.29;103007.44;5048168;28;1914;-79
2023/05/26 09:30:00;;;;;;;;;;;;;;;13.81;62.17;103014.63;5045426;28;1307;-79
2023/05/26 09:32:28;;;;;;;;;;;;;;;13.88;61.72;103009.84;5048263;28;1588;-79
2023/05/26 09:34:58;;;;;;;;;;;;;;;13.98;61.37;103006.59;5054408;28;1298;-80
2023/05/26 09:37:30;;;;;;;;;;;;;;;13.95;58.91;103008.56;5059871;28;1255;-79
2023/05/26 09:40:05;;;;;;;;;;;;;;;13.91;60.17;103009.69;5064563;28;1392;-79
2023/05/26 09:42:30;;;;;;;;;;;;;;;14.06;61.80;103011.38;5058091;28;1172;-79
2023/05/26 09:44:56;;;;;;;;;;;;;;;14.28;61.35;103014.31;5064401;28;1284;-78
2023/05/26 09:47:21;;;;;;;;;;;;;;;14.43;60.58;103006.44;5049534;28;1894;-79
2023/05/26 09:49:46;;;;;;;;;;;;;;;14.56;59.87;103009.97;5061766;28;1308;-78
2023/05/26 09:52:12;;;;;;;;;;;;;;;14.63;59.20;103006.06;5065055;28;1389;-78
2023/05/26 09:54:38;;;;;;;;;;;;;;;14.78;58.71;103014.69;5049127;28;1192;-79
2023/05/26 09:57:10;;;;;;;;;;;;;;;14.83;57.51;103010.84;5056842;28;1111;-80
2023/05/26 09:59:38;;;;;;;;;;;;;;;14.91;57.85;103009.47;5063641;28;1308;-80
2023/05/26 10:02:22;;;;;;;;;;;;;;;14.94;56.24;103017.13;5045515;28;1620;-79
2023/05/26 10:04:49;;;;;;;;;;;;;;;14.99;57.77;103009.84;5064430;28;1061;-78
2023/05/26 10:07:18;;;;;;;;;;;;;;;15.11;56.98;103014.25;5050651;28;1889;-78
2023/05/26 10:09:55;;;;;;;;;;;;;;;15.05;55.66;103012.06;5068042;28;1212;-79
2023/05/26 10:12:25;;;;;;;;;;;;;;;14.98;55.64;103010.78;5047670;28;1185;-78
2023/05/26 10:14:52;;;;;;;;;;;;;;;15.04;55.30;103007.78;5049725;28;1335;-78
2023/05/26 10:17:17;;;;;;;;;;;;;;;15.12;55.86;103011.53;5069154;28;1103;-78
2023/05/26 10:19:42;;;;;;;;;;;;;;;15.23;54.84;103003.00;5048467;28;1221;-82
2023/05/26 10:22:10;;;;;;;;;;;;;;;15.31;55.76;103000.72;5048381;28;1431;-78
2023/05/26 10:24:40;;;;;;;;;;;;;;;15.43;54.90;102998.22;5064611;28;1197;-78
2023/05/26 10:27:25;;;;;;;;;;;;;;;15.43;53.43;102992.97;5059679;28;1890;-78
2023/05/26 10:30:00;;;;;;;;;;;;;;;15.52;55.40;102992.34;5067970;28;1280;-79
2023/05/26 10:32:41;;;;;;;;;;;;;;;15.63;55.07;102984.63;5059238;28;1029;-78
2023/05/26 10:35:23;;;;;;;;;;;;;;;15.79;53.91;102981.81;5047462;28;1481;-78
2023/05/26 10:37:56;;;;;;;;;;;;;;;15.93;52.70;102987.72;5067469;28;994;-78
2023/05/26 10:40:28;;;;;;;;;;;;;;;16.01;52.41;102986.38;5069200;28;1295;-77
2023/05/26 10:43:01;;;;;;;;;;;;;;;16.12;53.55;102981.22;5047926;28;1302;-78
2023/05/26 10:45:31;;;;;;;;;;;;;;;16.24;49.96;102984.75;5069867;28;1078;-78
2023/05/26 10:47:58;;;;;;;;;;;;;;;16.21;49.27;102980.56;5070336;28;1025;-78
2023/05/26 10:50:23;;;;;;;;;;;;;;;16.35;52.25;102983.03;5065078;28;1137;-78
2023/05/26 10:52:50;;;;;;;;;;;;;;;16.29;49.66;102983.47;5070055;28;1155;-79
2023/05/26 10:55:31;;;;;;;;;;;;;;;16.30;50.28;102969.44;5062797;28;1240;-76
2023/05/26 10:58:15;;;;;;;;;;;;;;;16.41;48.85;102976.53;5066653;28;1148;-77
2023/05/26 11:00:43;;;;;;;;;;;;;;;16.38;47.50;102977.56;5058171;28;1037;-78
2023/05/26 11:03:27;;;;;;;;;;;;;;;16.48;48.01;102982.16;5039836;28;1291;-79
2023/05/26 11:05:55;;;;;;;;;;;;;;;16.55;48.70;102980.75;5061277;28;1993;-76
2023/05/26 11:08:22;;;;;;;;;;;;;;;16.64;46.63;102974.84;5070509;28;1131;-77
2023/05/26 11:11:03;;;;;;;;;;;;;;;16.66;48.73;102971.16;5069208;28;1061;-78
2023/05/26 11:13:41;;;;;;;;;;;;;;;16.75;48.96;102974.94;5067298;28;866;-78
2023/05/26 11:16:12;;;;;;;;;;;;;;;16.97;47.85;102963.66;5058292;28;1261;-78
2023/05/26 11:18:47;;;;;;;;;;;;;;;16.96;47.67;102973.31;5065463;28;1108;-78
2023/05/26 11:21:12;;;;;;;;;;;;;;;17.06;48.09;102967.41;5064542;28;1152;-78
2023/05/26 11:23:38;;;;;;;;;;;;;;;17.10;46.82;102968.84;5061084;28;1232;-77
2023/05/26 11:26:09;;;;;;;;;;;;;;;16.90;43.37;102963.28;5070008;28;1906;-78
2023/05/26 11:28:39;;;;;;;;;;;;;;;16.94;46.23;102958.66;5068181;28;986;-78
2023/05/26 11:31:11;;;;;;;;;;;;;;;17.06;44.57;102967.41;5069359;28;1217;-77
2023/05/26 11:33:36;;;;;;;;;;;;;;;17.15;46.19;102958.84;5051113;28;1236;-78
2023/05/26 11:36:12;;;;;;;;;;;;;;;17.31;46.98;102956.72;5069643;28;1138;-77
2023/05/26 11:38:37;;;;;;;;;;;;;;;17.49;45.39;102957.94;5067579;28;1020;-77
2023/05/26 11:41:07;;;;;;;;;;;;;;;17.51;42.77;102953.41;5068379;28;1197;-77
2023/05/26 11:43:33;;;;;;;;;;;;;;;17.43;44.43;102955.78;5047092;28;1235;-78
2023/05/26 11:46:01;;;;;;;;;;;;;;;17.42;43.55;102954.09;5054400;28;1921;-78
2023/05/26 11:48:30;;;;;;;;;;;;;;;17.42;45.32;102948.03;5063267;28;1462;-78
2023/05/26 11:50:55;;;;;;;;;;;;;;;17.40;44.73;102949.94;5066029;28;1222;-78
2023/05/26 11:53:20;;;;;;;;;;;;;;;17.35;45.33;102958.16;5058974;28;1094;-78
2023/05/26 11:55:46;;;;;;;;;;;;;;;17.49;45.40;102960.56;5059538;28;1237;-77
2023/05/26 11:58:12;;;;;;;;;;;;;;;17.69;44.51;102956.38;5061770;28;1120;-77
2023/05/26 12:00:37;;;;;;;;;;;;;;;17.64;43.04;102957.69;5046370;28;1212;-78
2023/05/26 12:03:02;;;;;;;;;;;;;;;17.59;43.65;102949.34;5072522;28;1073;-78
2023/05/26 12:05:28;;;;;;;;;;;;;;;17.53;42.95;102945.41;5045942;28;1202;-76
2023/05/26 12:08:06;;;;;;;;;;;;;;;17.65;44.67;102943.63;5070625;28;1973;-77
2023/05/26 12:10:32;;;;;;;;;;;;;;;17.81;45.67;102944.13;5050571;28;1341;-78
2023/05/26 12:12:57;;;;;;;;;;;;;;;17.97;44.58;102954.25;5043509;28;1370;-77
2023/05/26 12:15:23;;;;;;;;;;;;;;;18.02;44.84;102947.69;5062916;28;1135;-78
2023/05/26 12:17:50;;;;;;;;;;;;;;;18.07;44.54;102943.88;5065139;28;1255;-78
2023/05/26 12:20:19;;;;;;;;;;;;;;;18.14;44.27;102945.88;5057175;28;942;-75
2023/05/26 12:22:44;;;;;;;;;;;;;;;18.14;43.15;102945.88;5062331;28;1078;-74
2023/05/26 12:25:10;;;;;;;;;;;;;;;18.21;42.83;102943.56;5049937;28;1131;-75
2023/05/26 12:27:36;;;;;;;;;;;;;;;18.23;39.35;102941.66;5067529;28;1889;-76
2023/05/26 12:30:26;;;;;;;;;;;;;;;18.28;40.67;102936.88;5064377;28;1114;-75
2023/05/26 12:32:51;;;;;;;;;;;;;;;18.27;40.42;102933.41;5032751;28;1430;-76
2023/05/26 12:35:17;;;;;;;;;;;;;;;18.25;40.61;102937.13;5051351;28;1042;-76
2023/05/26 12:37:42;;;;;;;;;;;;;;;18.19;40.76;102937.63;5045565;28;1236;-77
2023/05/26 12:40:08;;;;;;;;;;;;;;;18.12;41.32;102931.16;5056844;28;1117;-76
2023/05/26 12:42:33;;;;;;;;;;;;;;;18.09;41.71;102931.44;5043485;28;1330;-75
2023/05/26 12:44:59;;;;;;;;;;;;;;;18.13;40.47;102928.44;5066012;28;1103;-75
2023/05/26 12:47:24;;;;;;;;;;;;;;;18.11;42.21;102924.25;5044481;28;1941;-75
2023/05/26 12:49:49;;;;;;;;;;;;;;;18.28;42.64;102926.34;5062813;28;1092;-76